Meadow Creek, West Virginia
Current Conditions -  °F | °C
As of 8:51 AM on Saturday 25 Oct 2014 (Local Time) from KBKW Reporting Station
Clear Clear  
Wind Chill: 40°   Ceiling: Unl
Heat Index: 43°   Visibility: 10mi
Dew Point: 38°   Wind: 5mph
Humidity: 82%   Direction: 200°SSW
Pressure: 30.07"   Gusts: NA
Location:  37.81°N, 80.92°W
Report Text: KBKW 251251Z AUTO 20004KT 10SM CLR 06/03 A3007 RMK AO2 SLP191 T00610033 TSNO
Loading
Personal Weather Stations






























Interactive Weather Map
Tropical Storm Tracking
New forecast layout! Learn more

10-Day Weather Forecast

Advertisements
Track Severe Weather on mobile